Time;durP1;ratioP1;P1;durP2;ratioP2;P2;SDS_P1;SDS_P2;PMS_P1;PMS_P2;Temp;Humidity;BMP_temperature;BMP_pressure;BME280_temperature;BME280_humidity;BME280_pressure;Samples;Min_cycle;Max_cycle;Signal;HPM_P1;HPM_P2
2021/09/06 00:02:00;;;;;;;1.48;0.50;;;18.30;46.70;;;;;;5013441;28;20233;-59
2021/09/06 00:04:30;;;;;;;2.05;0.50;;;18.30;46.70;;;;;;5013542;28;20349;-57
2021/09/06 00:07:02;;;;;;;0.45;0.45;;;18.40;46.40;;;;;;5012507;28;20287;-60
2021/09/06 00:09:33;;;;;;;0.95;0.50;;;18.40;46.50;;;;;;5012196;28;20260;-57
2021/09/06 00:12:03;;;;;;;1.55;0.50;;;18.40;46.60;;;;;;5013737;28;20280;-60
2021/09/06 00:14:34;;;;;;;1.05;0.68;;;18.40;46.60;;;;;;5013161;28;20275;-45
2021/09/06 00:17:04;;;;;;;0.60;0.50;;;18.30;46.60;;;;;;5012541;28;20284;-45
2021/09/06 00:19:35;;;;;;;1.33;0.70;;;18.40;46.60;;;;;;5013413;28;20700;-50
2021/09/06 00:22:07;;;;;;;1.38;0.45;;;18.40;46.60;;;;;;5012731;28;20285;-56
2021/09/06 00:24:37;;;;;;;0.75;0.60;;;18.40;46.40;;;;;;5012474;28;20643;-48
2021/09/06 00:27:08;;;;;;;0.45;0.40;;;18.40;46.40;;;;;;5012344;28;20673;-54
2021/09/06 00:29:38;;;;;;;0.70;0.40;;;18.40;46.40;;;;;;5011757;28;20307;-49
2021/09/06 00:32:09;;;;;;;1.00;0.50;;;18.40;46.30;;;;;;5012485;28;20240;-51
2021/09/06 00:34:40;;;;;;;0.82;0.60;;;18.40;46.20;;;;;;5012861;28;20247;-49
2021/09/06 00:37:12;;;;;;;0.70;0.40;;;18.40;46.10;;;;;;5012318;28;20200;-60
2021/09/06 00:39:42;;;;;;;0.90;0.60;;;18.40;46.00;;;;;;5011609;28;20317;-56
2021/09/06 00:42:13;;;;;;;0.57;0.40;;;18.40;46.00;;;;;;5012627;28;20193;-57
2021/09/06 00:44:44;;;;;;;0.60;0.40;;;18.40;46.00;;;;;;5012271;28;20232;-53
2021/09/06 00:47:14;;;;;;;0.40;0.32;;;18.40;45.90;;;;;;5011488;28;20239;-60
2021/09/06 00:49:45;;;;;;;1.25;0.50;;;18.40;46.00;;;;;;5012003;28;20739;-60
2021/09/06 00:52:17;;;;;;;1.05;0.50;;;18.50;46.20;;;;;;5012947;28;20208;-60
2021/09/06 00:54:48;;;;;;;0.90;0.50;;;18.50;46.20;;;;;;5011349;28;20240;-48
2021/09/06 00:57:19;;;;;;;0.65;0.40;;;18.50;46.20;;;;;;5012451;28;20221;-58
2021/09/06 00:59:49;;;;;;;1.45;0.47;;;18.50;46.20;;;;;;5012416;28;20247;-60
2021/09/06 01:02:19;;;;;;;0.93;0.63;;;18.50;46.20;;;;;;5011920;28;20634;-53
2021/09/06 01:04:50;;;;;;;1.27;0.30;;;18.50;46.20;;;;;;5012245;28;20616;-60
2021/09/06 01:07:22;;;;;;;0.85;0.52;;;18.50;46.10;;;;;;5012614;28;20228;-45
2021/09/06 01:09:52;;;;;;;0.65;0.30;;;18.50;46.00;;;;;;5012767;28;20305;-58
2021/09/06 01:12:23;;;;;;;1.05;0.55;;;18.50;45.80;;;;;;5011486;28;20236;-45
2021/09/06 01:14:53;;;;;;;1.48;0.50;;;18.50;45.80;;;;;;5012456;28;20227;-55
2021/09/06 01:17:24;;;;;;;2.35;0.60;;;18.50;45.70;;;;;;5010532;28;20288;-49
2021/09/06 01:19:54;;;;;;;0.57;0.43;;;18.50;45.70;;;;;;5012678;28;20264;-56
2021/09/06 01:22:26;;;;;;;0.77;0.40;;;18.50;45.70;;;;;;5011277;28;20228;-46
2021/09/06 01:24:57;;;;;;;0.90;0.38;;;18.50;45.60;;;;;;5012343;28;20247;-61
2021/09/06 01:27:29;;;;;;;0.98;0.40;;;18.50;45.60;;;;;;5011676;28;20228;-42
2021/09/06 01:30:00;;;;;;;0.75;0.55;;;18.50;45.70;;;;;;5012108;28;20252;-59
2021/09/06 01:32:30;;;;;;;1.67;0.40;;;18.50;45.80;;;;;;5011021;28;20248;-59
2021/09/06 01:35:00;;;;;;;0.80;0.50;;;18.50;45.90;;;;;;5011533;28;20205;-59
2021/09/06 01:37:31;;;;;;;0.40;0.40;;;18.60;45.90;;;;;;5011310;28;20247;-59
2021/09/06 01:40:01;;;;;;;0.40;0.40;;;18.60;45.90;;;;;;5011546;28;20315;-57
2021/09/06 01:42:34;;;;;;;0.60;0.40;;;18.60;45.90;;;;;;5011864;28;20232;-53
2021/09/06 01:45:04;;;;;;;1.33;0.55;;;18.60;45.90;;;;;;5011386;28;20239;-60
2021/09/06 01:47:35;;;;;;;0.60;0.60;;;18.60;45.70;;;;;;5011821;28;20205;-45
2021/09/06 01:50:05;;;;;;;1.10;0.57;;;18.60;45.80;;;;;;5010613;28;20259;-42
2021/09/06 01:52:36;;;;;;;0.82;0.60;;;18.60;45.70;;;;;;5011342;28;20231;-42
2021/09/06 01:55:06;;;;;;;0.40;0.40;;;18.60;45.60;;;;;;5011493;28;20251;-55
2021/09/06 01:57:39;;;;;;;0.50;0.50;;;18.60;45.70;;;;;;5011594;28;20284;-47
2021/09/06 02:00:10;;;;;;;1.23;0.50;;;18.60;45.70;;;;;;5011378;28;20345;-53
2021/09/06 02:02:40;;;;;;;0.60;0.57;;;18.60;45.70;;;;;;5011981;28;20243;-55
2021/09/06 02:05:11;;;;;;;1.63;0.60;;;18.60;45.80;;;;;;5011626;28;20279;-45
2021/09/06 02:07:42;;;;;;;0.70;0.70;;;18.60;45.80;;;;;;5010726;28;20232;-48
2021/09/06 02:10:12;;;;;;;1.00;0.50;;;18.60;45.70;;;;;;5011148;28;20249;-56
2021/09/06 02:12:45;;;;;;;0.85;0.68;;;18.60;45.70;;;;;;5010573;28;20235;-52
2021/09/06 02:15:15;;;;;;;0.52;0.40;;;18.60;45.80;;;;;;5011608;28;20282;-49
2021/09/06 02:17:46;;;;;;;0.40;0.40;;;18.60;45.80;;;;;;5010910;28;20618;-60
2021/09/06 02:20:16;;;;;;;1.60;0.50;;;18.60;45.70;;;;;;5009991;28;20674;-55
2021/09/06 02:22:47;;;;;;;0.70;0.50;;;18.70;45.80;;;;;;5011418;28;20236;-44
2021/09/06 02:25:17;;;;;;;1.33;0.50;;;18.70;45.80;;;;;;4990954;28;20237;-50
2021/09/06 02:27:49;;;;;;;0.50;0.45;;;18.70;45.80;;;;;;4991308;28;20251;-48
2021/09/06 02:30:20;;;;;;;1.48;0.40;;;18.70;45.80;;;;;;4990786;28;20249;-49
2021/09/06 02:32:50;;;;;;;0.95;0.50;;;18.70;46.00;;;;;;4992037;28;20233;-50
2021/09/06 02:35:21;;;;;;;1.88;0.50;;;18.70;45.90;;;;;;4990652;28;20225;-59
2021/09/06 02:37:51;;;;;;;0.68;0.40;;;18.70;45.80;;;;;;4990956;28;20233;-53
2021/09/06 02:40:22;;;;;;;0.65;0.50;;;18.70;45.80;;;;;;4990521;28;20264;-55
2021/09/06 02:42:54;;;;;;;0.40;0.40;;;18.70;45.80;;;;;;4999187;28;20258;-58
2021/09/06 02:45:24;;;;;;;0.50;0.47;;;18.70;45.70;;;;;;5008354;28;20232;-57
2021/09/06 02:47:55;;;;;;;1.35;0.52;;;18.70;45.70;;;;;;5009371;28;20631;-54
2021/09/06 02:50:25;;;;;;;0.45;0.40;;;18.70;45.70;;;;;;5001371;28;20300;-51
2021/09/06 02:52:55;;;;;;;0.95;0.50;;;18.70;45.70;;;;;;5001621;28;20237;-45
2021/09/06 02:55:26;;;;;;;1.08;0.60;;;18.70;45.80;;;;;;5010098;28;20287;-56
2021/09/06 02:57:58;;;;;;;0.32;0.30;;;18.70;45.60;;;;;;5010376;28;20236;-55
2021/09/06 03:00:29;;;;;;;1.13;0.47;;;18.70;45.50;;;;;;5010870;28;20247;-56
2021/09/06 03:02:59;;;;;;;0.45;0.40;;;18.70;45.60;;;;;;5014444;28;20232;-54
2021/09/06 03:05:31;;;;;;;0.40;0.40;;;18.70;45.50;;;;;;5014980;28;20232;-59
2021/09/06 03:08:02;;;;;;;0.70;0.50;;;18.70;45.50;;;;;;5014614;28;20201;-58
2021/09/06 03:10:33;;;;;;;0.60;0.50;;;18.70;45.50;;;;;;5014337;28;20263;-59
2021/09/06 03:13:05;;;;;;;0.40;0.30;;;18.70;45.60;;;;;;5013778;28;20193;-57
2021/09/06 03:15:36;;;;;;;0.73;0.40;;;18.70;45.60;;;;;;5014304;28;20228;-42
2021/09/06 03:18:06;;;;;;;0.65;0.50;;;18.80;45.70;;;;;;4995031;28;20240;-56
2021/09/06 03:20:37;;;;;;;0.40;0.40;;;18.70;45.60;;;;;;4993844;28;20320;-47
2021/09/06 03:23:07;;;;;;;0.63;0.40;;;18.70;45.60;;;;;;4997308;28;20240;-60
2021/09/06 03:25:37;;;;;;;1.13;0.50;;;18.80;45.70;;;;;;5013688;28;20224;-53
2021/09/06 03:28:10;;;;;;;0.30;0.30;;;18.80;45.80;;;;;;5014016;28;20233;-44
2021/09/06 03:30:40;;;;;;;0.57;0.40;;;18.80;45.80;;;;;;5012597;28;20259;-58
2021/09/06 03:33:13;;;;;;;0.73;0.50;;;18.70;45.80;;;;;;5012962;28;20294;-56
2021/09/06 03:35:44;;;;;;;0.60;0.43;;;18.70;45.80;;;;;;5012485;28;20243;-58
2021/09/06 03:38:14;;;;;;;0.38;0.32;;;18.70;45.80;;;;;;5014361;28;20267;-59
2021/09/06 03:40:45;;;;;;;0.35;0.35;;;18.70;45.60;;;;;;5013829;28;20259;-60
2021/09/06 03:43:17;;;;;;;0.50;0.50;;;18.70;45.50;;;;;;5013764;28;20228;-59
2021/09/06 03:45:47;;;;;;;0.63;0.40;;;18.70;45.60;;;;;;5014273;28;20232;-42
2021/09/06 03:48:18;;;;;;;1.25;0.52;;;18.70;45.50;;;;;;5013003;28;20232;-58
2021/09/06 03:50:48;;;;;;;0.70;0.40;;;18.80;45.40;;;;;;5013681;28;20296;-59
2021/09/06 03:53:18;;;;;;;1.00;0.40;;;18.70;45.40;;;;;;5012639;28;20259;-59
2021/09/06 03:55:49;;;;;;;1.38;0.40;;;18.70;45.50;;;;;;5013529;28;20259;-55
2021/09/06 03:58:21;;;;;;;1.27;0.60;;;18.70;45.50;;;;;;5013165;28;20666;-50
2021/09/06 04:00:52;;;;;;;0.32;0.30;;;18.80;45.60;;;;;;5013448;28;20264;-51
2021/09/06 04:03:22;;;;;;;0.55;0.50;;;18.80;45.60;;;;;;5012230;28;20467;-60
2021/09/06 04:05:52;;;;;;;0.52;0.40;;;18.80;45.60;;;;;;5013544;28;20197;-55
2021/09/06 04:08:25;;;;;;;0.30;0.30;;;18.70;45.50;;;;;;5013145;28;20232;-57
2021/09/06 04:10:55;;;;;;;0.88;0.50;;;18.70;45.60;;;;;;5012624;28;20643;-54
2021/09/06 04:13:27;;;;;;;0.90;0.30;;;18.70;45.60;;;;;;5011604;28;20625;-49
2021/09/06 04:15:58;;;;;;;0.50;0.50;;;18.70;45.60;;;;;;5012883;28;20624;-59
2021/09/06 04:18:29;;;;;;;0.50;0.50;;;18.70;45.80;;;;;;5013454;28;20278;-60
2021/09/06 04:21:00;;;;;;;0.60;0.50;;;18.70;45.70;;;;;;5012879;28;20225;-60
2021/09/06 04:23:30;;;;;;;0.40;0.40;;;18.70;45.70;;;;;;5011771;28;20655;-49
2021/09/06 04:26:01;;;;;;;0.40;0.40;;;18.70;45.80;;;;;;5012691;28;20278;-52
2021/09/06 04:28:33;;;;;;;1.40;0.40;;;18.70;45.80;;;;;;5012804;28;20791;-53
2021/09/06 04:31:04;;;;;;;1.20;0.50;;;18.70;45.80;;;;;;5012049;28;20676;-50
2021/09/06 04:33:34;;;;;;;0.50;0.40;;;18.70;45.90;;;;;;5013161;28;20233;-59
2021/09/06 04:36:05;;;;;;;0.32;0.30;;;18.70;45.90;;;;;;5012060;28;20236;-56
2021/09/06 04:38:35;;;;;;;0.40;0.40;;;18.70;46.00;;;;;;5011943;28;20235;-56
2021/09/06 04:41:06;;;;;;;0.40;0.40;;;18.70;46.00;;;;;;5013603;28;20318;-52
2021/09/06 04:43:38;;;;;;;0.30;0.30;;;18.70;46.00;;;;;;5012705;28;20247;-52
2021/09/06 04:46:08;;;;;;;0.70;0.60;;;18.70;46.00;;;;;;5012628;28;20642;-60
2021/09/06 04:48:39;;;;;;;0.47;0.35;;;18.70;46.00;;;;;;5012647;28;20563;-61
2021/09/06 04:51:11;;;;;;;0.47;0.47;;;18.70;46.10;;;;;;5012188;28;20572;-51
2021/09/06 04:53:41;;;;;;;0.88;0.45;;;18.70;46.20;;;;;;5012627;28;20215;-50
2021/09/06 04:56:12;;;;;;;1.35;0.50;;;18.70;46.20;;;;;;5011837;28;20235;-47
2021/09/06 04:58:44;;;;;;;0.85;0.50;;;18.70;46.20;;;;;;5011336;28;20232;-47
2021/09/06 05:01:14;;;;;;;0.40;0.40;;;18.70;46.40;;;;;;5011974;28;20225;-53
2021/09/06 05:03:45;;;;;;;2.20;0.90;;;18.70;46.40;;;;;;5012675;28;20233;-45
2021/09/06 05:06:15;;;;;;;1.75;0.60;;;18.70;46.50;;;;;;5011801;28;20232;-52
2021/09/06 05:08:46;;;;;;;0.40;0.40;;;18.70;46.50;;;;;;5012569;28;20224;-53
2021/09/06 05:11:17;;;;;;;0.47;0.32;;;18.70;46.50;;;;;;5012082;28;20262;-46
2021/09/06 05:13:50;;;;;;;0.35;0.35;;;18.70;46.50;;;;;;5012885;28;20239;-50
2021/09/06 05:16:20;;;;;;;0.50;0.50;;;18.70;46.50;;;;;;5012242;28;20691;-51
2021/09/06 05:18:51;;;;;;;0.50;0.50;;;18.70;46.60;;;;;;5012452;28;20228;-43
2021/09/06 05:21:21;;;;;;;1.10;0.50;;;18.70;46.60;;;;;;5012178;28;20311;-59
2021/09/06 05:23:52;;;;;;;0.50;0.50;;;18.70;46.60;;;;;;5011931;28;20244;-50
2021/09/06 05:26:22;;;;;;;1.15;0.50;;;18.70;46.50;;;;;;5009114;28;20285;-48
2021/09/06 05:28:55;;;;;;;1.10;0.52;;;18.60;46.50;;;;;;5011241;28;20244;-57
2021/09/06 05:34:02;;;;;;;6.18;0.70;;;18.70;46.50;;;;;;5030204;28;20232;-46
2021/09/06 05:36:32;;;;;;;0.40;0.40;;;18.60;46.50;;;;;;5031031;28;20668;-49
2021/09/06 05:39:03;;;;;;;3.72;0.70;;;18.70;46.60;;;;;;5033542;28;20234;-55
2021/09/06 05:41:33;;;;;;;5.22;0.80;;;18.70;46.40;;;;;;5051911;28;20328;-46
2021/09/06 05:44:08;;;;;;;3.17;0.80;;;18.70;46.20;;;;;;5050694;28;20227;-48
2021/09/06 05:46:38;;;;;;;2.05;0.80;;;18.70;46.20;;;;;;5051499;28;20230;-45
2021/09/06 05:49:09;;;;;;;5.75;1.23;;;18.70;46.30;;;;;;5050899;28;20231;-46
2021/09/06 05:51:39;;;;;;;3.70;0.93;;;18.70;46.30;;;;;;5050442;28;20242;-50
2021/09/06 05:54:09;;;;;;;2.33;1.00;;;18.70;46.20;;;;;;5049477;28;20292;-47
2021/09/06 05:56:40;;;;;;;3.15;1.00;;;18.70;46.30;;;;;;5051420;28;20606;-49
2021/09/06 05:59:12;;;;;;;2.83;0.70;;;18.70;46.40;;;;;;5049197;28;20227;-49
2021/09/06 06:01:43;;;;;;;6.53;0.98;;;18.70;46.40;;;;;;5050272;28;20296;-46
2021/09/06 06:04:13;;;;;;;4.70;0.85;;;18.70;46.40;;;;;;5051209;28;20684;-62
2021/09/06 06:06:44;;;;;;;3.40;0.90;;;18.70;46.50;;;;;;5049342;28;20261;-51
2021/09/06 06:09:14;;;;;;;2.08;0.80;;;18.70;46.50;;;;;;5049482;28;20298;-49
2021/09/06 06:11:45;;;;;;;2.85;0.93;;;18.60;46.50;;;;;;5050399;28;20207;-52
2021/09/06 06:14:17;;;;;;;3.33;0.80;;;18.70;46.50;;;;;;5049586;28;20655;-50
2021/09/06 06:16:47;;;;;;;4.25;0.85;;;18.60;46.50;;;;;;5049087;28;20239;-47
2021/09/06 06:19:18;;;;;;;2.80;0.90;;;18.60;46.60;;;;;;5049536;28;20257;-47
2021/09/06 06:21:48;;;;;;;4.07;0.63;;;18.60;46.70;;;;;;5049665;28;20352;-52
2021/09/06 06:24:19;;;;;;;2.55;0.82;;;18.60;46.70;;;;;;5049366;28;20284;-49
2021/09/06 06:26:49;;;;;;;2.38;0.60;;;18.60;46.70;;;;;;5048621;28;20278;-46
2021/09/06 06:29:21;;;;;;;1.77;0.80;;;18.60;46.80;;;;;;5050017;28;20684;-49
2021/09/06 06:31:52;;;;;;;5.22;1.10;;;18.60;46.80;;;;;;5059895;22;20259;-43
2021/09/06 06:34:22;;;;;;;3.00;0.90;;;18.60;46.90;;;;;;5029136;28;20279;-47
2021/09/06 06:36:53;;;;;;;2.55;0.63;;;18.60;46.90;;;;;;5028381;28;20667;-51
2021/09/06 06:39:23;;;;;;;2.08;0.70;;;18.60;46.90;;;;;;5029363;28;20255;-48
2021/09/06 06:41:54;;;;;;;1.83;0.90;;;18.60;46.90;;;;;;5029479;28;20263;-45
2021/09/06 06:44:26;;;;;;;3.58;0.80;;;18.60;47.00;;;;;;5029085;28;20469;-50
2021/09/06 06:46:56;;;;;;;3.20;0.90;;;18.60;47.00;;;;;;5029641;28;20235;-51
2021/09/06 06:49:27;;;;;;;1.98;0.80;;;18.60;47.10;;;;;;5030073;28;20259;-51
2021/09/06 06:51:57;;;;;;;2.17;0.60;;;18.60;47.10;;;;;;5017708;28;20272;-47
2021/09/06 06:54:27;;;;;;;1.02;0.60;;;18.50;47.10;;;;;;5011181;28;20243;-51
2021/09/06 06:56:58;;;;;;;1.70;1.05;;;18.60;47.20;;;;;;5009980;28;20251;-47
2021/09/06 06:59:30;;;;;;;3.35;0.70;;;18.60;47.20;;;;;;5010988;28;20819;-46
2021/09/06 07:02:01;;;;;;;0.60;0.60;;;18.50;47.20;;;;;;5010894;28;20311;-51
2021/09/06 07:04:31;;;;;;;1.20;0.60;;;18.50;47.20;;;;;;5010780;28;20610;-47
2021/09/06 07:07:02;;;;;;;2.30;0.90;;;18.50;47.30;;;;;;5010605;28;20228;-46
2021/09/06 07:09:32;;;;;;;2.17;0.82;;;18.50;47.30;;;;;;5010078;28;20274;-51
2021/09/06 07:12:02;;;;;;;0.93;0.70;;;18.50;47.30;;;;;;5010674;28;20236;-49
2021/09/06 07:14:35;;;;;;;2.38;0.80;;;18.50;47.30;;;;;;5010140;28;20259;-48
2021/09/06 07:17:05;;;;;;;1.23;0.70;;;18.50;47.40;;;;;;5011318;28;20239;-46
2021/09/06 07:19:36;;;;;;;1.60;0.98;;;18.50;47.40;;;;;;5010699;28;20255;-44
2021/09/06 07:22:06;;;;;;;1.45;0.80;;;18.50;47.40;;;;;;5010181;28;20315;-51
2021/09/06 07:24:37;;;;;;;1.75;0.90;;;18.50;47.40;;;;;;5010364;28;20270;-46
2021/09/06 07:27:07;;;;;;;4.28;1.85;;;18.40;47.40;;;;;;5009942;28;20503;-49
2021/09/06 07:29:40;;;;;;;2.80;1.40;;;18.50;48.00;;;;;;5010524;28;20279;-66
2021/09/06 07:32:10;;;;;;;3.53;1.77;;;18.50;48.20;;;;;;5010127;28;20690;-61
2021/09/06 07:34:41;;;;;;;2.17;0.93;;;18.50;46.60;;;;;;5010697;28;20236;-48
2021/09/06 07:37:12;;;;;;;4.88;2.88;;;18.40;45.00;;;;;;5010688;28;20224;-50
2021/09/06 07:39:46;;;;;;;4.03;2.20;;;18.40;45.50;;;;;;5008893;28;20253;-48
2021/09/06 07:42:17;;;;;;;4.93;2.20;;;18.40;46.10;;;;;;5010816;28;20228;-53
2021/09/06 07:44:50;;;;;;;3.58;2.22;;;18.40;46.10;;;;;;5010435;28;20192;-49
2021/09/06 07:47:20;;;;;;;3.78;2.08;;;18.40;46.20;;;;;;5011307;28;20236;-48
2021/09/06 07:49:50;;;;;;;4.13;1.85;;;18.30;46.20;;;;;;5013921;28;20315;-56
2021/09/06 07:52:21;;;;;;;5.80;2.05;;;18.30;46.20;;;;;;5014030;28;20243;-43
2021/09/06 07:54:51;;;;;;;2.85;1.80;;;18.30;46.30;;;;;;5013946;28;20232;-47
2021/09/06 07:57:22;;;;;;;3.40;1.80;;;18.30;46.30;;;;;;5013087;28;20235;-47
2021/09/06 07:59:54;;;;;;;3.13;1.70;;;18.30;46.40;;;;;;5013266;28;20247;-46
2021/09/06 08:02:24;;;;;;;3.55;1.70;;;18.30;46.40;;;;;;5013623;28;20339;-48
2021/09/06 08:04:55;;;;;;;2.67;1.55;;;18.30;46.50;;;;;;5014004;28;20228;-49
2021/09/06 08:07:26;;;;;;;3.10;1.58;;;18.30;46.50;;;;;;5013492;28;20755;-50
2021/09/06 08:09:57;;;;;;;4.90;1.77;;;18.30;46.60;;;;;;5013771;28;20221;-46
2021/09/06 08:12:27;;;;;;;3.03;1.58;;;18.20;46.60;;;;;;5014695;28;20228;-48
2021/09/06 08:14:59;;;;;;;3.10;1.77;;;18.20;46.60;;;;;;5013502;28;20243;-52
2021/09/06 08:17:30;;;;;;;3.15;1.70;;;18.20;46.70;;;;;;5013863;28;20235;-42
2021/09/06 08:20:00;;;;;;;2.97;1.65;;;18.20;46.80;;;;;;5013507;28;20252;-52
2021/09/06 08:22:31;;;;;;;3.28;1.80;;;18.20;47.40;;;;;;5013537;28;20256;-50
2021/09/06 08:25:01;;;;;;;3.22;1.85;;;18.20;46.90;;;;;;5013715;28;20712;-50
2021/09/06 08:27:32;;;;;;;2.70;1.50;;;18.20;46.90;;;;;;5013337;28;20271;-47
2021/09/06 08:30:04;;;;;;;3.90;1.40;;;18.20;47.60;;;;;;4994502;28;20213;-51
2021/09/06 08:32:34;;;;;;;1.92;1.45;;;18.20;47.00;;;;;;4993621;28;20244;-49
2021/09/06 08:35:05;;;;;;;2.78;1.42;;;18.20;47.00;;;;;;4993882;28;20236;-52
2021/09/06 08:37:35;;;;;;;4.28;1.90;;;18.20;47.10;;;;;;4993498;28;20225;-49
2021/09/06 08:40:06;;;;;;;3.85;1.48;;;18.20;47.10;;;;;;4993500;28;20264;-46
2021/09/06 08:42:36;;;;;;;2.15;1.35;;;18.20;47.20;;;;;;4993103;28;20256;-53
2021/09/06 08:45:09;;;;;;;2.13;1.50;;;18.20;47.20;;;;;;4992654;28;20229;-53
2021/09/06 08:47:40;;;;;;;3.75;1.88;;;18.20;47.30;;;;;;4993884;28;20233;-47
2021/09/06 08:50:11;;;;;;;3.05;1.40;;;18.10;47.20;;;;;;4997929;28;20286;-44
2021/09/06 08:52:42;;;;;;;5.35;1.20;;;18.10;47.30;;;;;;5013406;28;20256;-44
2021/09/06 08:55:13;;;;;;;3.42;1.58;;;18.10;47.30;;;;;;5013357;28;20232;-48
2021/09/06 08:57:43;;;;;;;2.13;1.40;;;18.10;47.30;;;;;;5012492;28;20255;-47
2021/09/06 09:00:17;;;;;;;2.65;1.52;;;18.10;47.40;;;;;;5012732;28;20252;-41
2021/09/06 09:02:47;;;;;;;3.05;1.70;;;18.10;47.50;;;;;;5012707;28;20312;-44
2021/09/06 09:05:17;;;;;;;2.38;1.25;;;18.10;47.70;;;;;;5026785;28;20227;-53
2021/09/06 09:07:48;;;;;;;2.50;1.50;;;18.10;47.70;;;;;;5032170;28;20298;-58
2021/09/06 09:10:30;;;;;;;3.35;1.45;;;18.10;47.80;;;;;;5032304;28;20255;-51
2021/09/06 09:13:07;;;;;;;2.15;1.13;;;18.10;47.90;;;;;;5033231;28;20189;-45
2021/09/06 09:15:39;;;;;;;2.42;1.20;;;18.10;47.90;;;;;;5031661;28;20285;-52
2021/09/06 09:18:10;;;;;;;4.05;1.60;;;18.10;47.90;;;;;;5032509;28;20660;-52
2021/09/06 09:20:41;;;;;;;2.67;1.60;;;18.10;47.90;;;;;;5031843;28;20243;-42
2021/09/06 09:23:12;;;;;;;1.55;1.27;;;18.10;47.90;;;;;;5029302;28;20264;-50
2021/09/06 09:25:42;;;;;;;2.33;1.20;;;18.10;48.00;;;;;;5012243;28;20251;-46
2021/09/06 09:28:13;;;;;;;1.50;1.05;;;18.10;47.90;;;;;;5011729;28;20232;-55
2021/09/06 09:30:46;;;;;;;2.60;1.27;;;18.00;47.90;;;;;;5017851;28;20216;-45
2021/09/06 09:33:17;;;;;;;1.80;1.40;;;18.10;48.00;;;;;;5054261;22;20255;-63
2021/09/06 09:35:47;;;;;;;2.80;1.30;;;18.10;48.00;;;;;;5051289;28;20200;-46
2021/09/06 09:38:18;;;;;;;2.08;1.20;;;18.10;48.00;;;;;;5050735;28;20262;-63
2021/09/06 09:40:48;;;;;;;3.55;1.52;;;18.10;48.20;;;;;;5051135;28;20219;-55
2021/09/06 09:43:18;;;;;;;3.70;1.40;;;18.10;48.90;;;;;;5051306;28;20251;-51
2021/09/06 09:45:51;;;;;;;2.28;1.30;;;18.10;49.20;;;;;;5051333;28;20234;-48
2021/09/06 09:48:21;;;;;;;1.77;1.38;;;18.10;49.20;;;;;;5051652;28;20196;-47
2021/09/06 09:50:52;;;;;;;1.85;1.40;;;18.10;49.20;;;;;;5051027;28;20257;-45
2021/09/06 09:53:22;;;;;;;2.90;1.73;;;18.10;49.10;;;;;;5051418;28;20242;-47
2021/09/06 09:55:53;;;;;;;1.90;1.20;;;18.10;49.10;;;;;;5050898;28;20207;-49
2021/09/06 09:58:23;;;;;;;3.35;1.30;;;18.10;49.10;;;;;;5050754;28;20195;-47
2021/09/06 10:00:56;;;;;;;2.13;1.30;;;18.10;49.00;;;;;;5051392;28;20215;-47
2021/09/06 10:03:27;;;;;;;2.25;1.30;;;18.10;49.20;;;;;;5050436;28;20707;-50
2021/09/06 10:05:57;;;;;;;2.60;1.52;;;18.10;49.00;;;;;;5051325;28;20199;-49
2021/09/06 10:08:28;;;;;;;2.35;1.48;;;18.10;49.00;;;;;;5051013;28;20235;-56
2021/09/06 10:10:58;;;;;;;2.03;1.10;;;18.10;49.00;;;;;;5050372;28;20258;-60
2021/09/06 10:13:28;;;;;;;2.35;1.30;;;18.10;49.00;;;;;;5051077;28;20334;-64
2021/09/06 10:16:04;;;;;;;2.35;1.30;;;18.10;48.90;;;;;;5050574;28;20195;-55
2021/09/06 10:18:38;;;;;;;1.58;1.10;;;18.10;48.90;;;;;;5050795;28;20663;-53
2021/09/06 10:21:18;;;;;;;1.98;1.25;;;18.10;48.90;;;;;;5050754;28;20215;-61
2021/09/06 10:23:49;;;;;;;1.73;1.20;;;18.10;48.90;;;;;;5051146;28;20227;-49
2021/09/06 10:26:19;;;;;;;1.83;1.35;;;18.00;48.80;;;;;;5050116;28;20234;-57
2021/09/06 10:28:52;;;;;;;3.05;1.20;;;18.00;48.80;;;;;;5050597;28;20297;-53
2021/09/06 10:31:28;;;;;;;2.15;1.25;;;18.00;48.80;;;;;;5050722;28;20618;-58
2021/09/06 10:34:02;;;;;;;1.98;1.10;;;18.00;48.80;;;;;;5062875;22;20261;-45
2021/09/06 10:36:32;;;;;;;3.05;1.30;;;18.00;48.80;;;;;;5050985;28;20554;-44
2021/09/06 10:39:07;;;;;;;2.08;1.40;;;18.00;48.80;;;;;;5049783;28;20231;-59
2021/09/06 10:41:47;;;;;;;1.65;1.00;;;18.00;48.80;;;;;;5051185;28;20194;-47
2021/09/06 10:44:18;;;;;;;5.07;1.52;;;18.00;48.80;;;;;;5034190;28;20223;-58
2021/09/06 10:46:58;;;;;;;2.20;1.30;;;18.00;48.80;;;;;;5030399;28;20600;-58
2021/09/06 10:49:28;;;;;;;2.60;1.27;;;18.00;48.80;;;;;;5041984;28;20246;-56
2021/09/06 10:52:00;;;;;;;2.88;1.13;;;18.00;48.80;;;;;;5050685;28;20239;-52
2021/09/06 10:54:30;;;;;;;1.90;1.20;;;18.00;48.80;;;;;;5050953;28;20239;-55
2021/09/06 10:57:01;;;;;;;1.52;1.00;;;18.00;48.80;;;;;;5049976;28;20580;-57
2021/09/06 10:59:31;;;;;;;1.50;1.10;;;17.90;48.70;;;;;;5049793;28;20592;-47
2021/09/06 11:02:04;;;;;;;1.58;1.02;;;17.90;48.70;;;;;;5049613;28;20744;-49
2021/09/06 11:04:35;;;;;;;2.22;1.13;;;17.90;48.70;;;;;;5050379;28;20717;-56
2021/09/06 11:07:06;;;;;;;2.22;1.30;;;17.90;48.70;;;;;;5050796;28;20290;-53
2021/09/06 11:09:36;;;;;;;2.63;1.23;;;17.90;48.70;;;;;;5050496;28;20247;-54
2021/09/06 11:12:08;;;;;;;3.35;1.40;;;17.90;48.70;;;;;;5050205;28;20290;-56
2021/09/06 11:14:40;;;;;;;3.63;0.80;;;17.90;48.70;;;;;;5049535;28;20294;-54
2021/09/06 11:17:24;;;;;;;1.73;1.13;;;17.90;48.80;;;;;;5050525;28;20234;-52
2021/09/06 11:19:55;;;;;;;1.77;1.15;;;17.90;48.80;;;;;;5050143;28;20215;-56
2021/09/06 11:22:27;;;;;;;1.85;1.13;;;17.90;48.80;;;;;;5051577;28;20239;-52
2021/09/06 11:25:00;;;;;;;2.45;1.30;;;17.90;48.80;;;;;;5054609;28;20735;-55
2021/09/06 11:27:32;;;;;;;3.13;1.30;;;17.90;48.80;;;;;;5053846;28;20292;-54
2021/09/06 11:30:02;;;;;;;2.03;1.23;;;17.80;48.70;;;;;;5034332;28;20248;-56
2021/09/06 11:32:35;;;;;;;2.38;1.23;;;17.80;48.70;;;;;;5033857;28;20247;-55
2021/09/06 11:35:06;;;;;;;2.95;1.20;;;17.90;48.70;;;;;;5033998;28;20448;-54
2021/09/06 11:37:37;;;;;;;2.00;1.30;;;17.80;48.70;;;;;;5033197;28;20246;-54
2021/09/06 11:40:08;;;;;;;2.70;1.40;;;17.80;48.70;;;;;;5033477;28;20220;-56
2021/09/06 11:42:38;;;;;;;2.58;1.23;;;17.80;48.70;;;;;;5036243;28;20231;-56
2021/09/06 11:45:10;;;;;;;2.55;1.20;;;17.80;48.70;;;;;;5053343;28;20282;-57
2021/09/06 11:47:42;;;;;;;3.70;1.40;;;17.80;48.70;;;;;;5053995;28;20227;-57
2021/09/06 11:50:13;;;;;;;1.35;1.10;;;17.80;48.70;;;;;;5053130;28;20646;-55
2021/09/06 11:52:44;;;;;;;1.58;0.98;;;17.80;48.70;;;;;;5054276;28;20307;-56
2021/09/06 11:55:16;;;;;;;1.75;1.00;;;17.80;48.70;;;;;;5053623;28;20794;-56
2021/09/06 11:57:46;;;;;;;3.00;1.25;;;17.80;48.80;;;;;;5037871;28;20651;-56
2021/09/06 12:00:19;;;;;;;3.08;1.20;;;17.80;48.80;;;;;;5033685;28;20703;-54
2021/09/06 12:02:56;;;;;;;3.60;1.23;;;17.80;48.80;;;;;;5033054;28;20220;-56
2021/09/06 12:05:26;;;;;;;1.95;0.98;;;17.80;48.90;;;;;;5033964;28;20208;-53
2021/09/06 12:07:57;;;;;;;3.15;1.35;;;17.80;48.80;;;;;;5033341;28;20352;-56
2021/09/06 12:10:29;;;;;;;2.40;1.20;;;17.80;48.80;;;;;;5033826;28;20216;-56
2021/09/06 12:13:05;;;;;;;2.47;1.10;;;17.80;48.90;;;;;;5033648;28;20235;-56
2021/09/06 12:15:36;;;;;;;2.00;1.20;;;17.70;48.80;;;;;;5037104;28;20242;-56
2021/09/06 12:18:16;;;;;;;1.75;1.00;;;17.70;48.90;;;;;;5053548;28;20234;-55
2021/09/06 12:20:46;;;;;;;1.98;1.15;;;17.80;48.90;;;;;;5053493;28;20251;-56
2021/09/06 12:23:28;;;;;;;2.15;1.00;;;17.80;48.90;;;;;;5053204;28;20667;-55
2021/09/06 12:25:58;;;;;;;2.20;1.08;;;17.70;48.80;;;;;;5053493;28;20747;-50
2021/09/06 12:28:29;;;;;;;2.95;1.52;;;17.70;48.80;;;;;;5053083;28;20721;-56
2021/09/06 12:31:00;;;;;;;1.73;1.15;;;17.70;48.70;;;;;;5052761;28;20243;-52
2021/09/06 12:33:33;;;;;;;2.70;1.25;;;17.70;48.80;;;;;;5052822;28;20211;-59
2021/09/06 12:36:04;;;;;;;1.92;0.93;;;17.70;48.80;;;;;;5053111;28;20605;-55
2021/09/06 12:38:35;;;;;;;1.95;0.98;;;17.70;49.40;;;;;;5050098;28;20238;-56
2021/09/06 12:41:05;;;;;;;1.27;1.00;;;17.70;48.80;;;;;;5053550;28;20312;-53
2021/09/06 12:43:36;;;;;;;1.60;1.40;;;17.70;48.90;;;;;;5053403;28;20262;-52
2021/09/06 12:46:07;;;;;;;1.40;0.80;;;17.70;48.90;;;;;;5053087;28;20227;-54
2021/09/06 12:48:39;;;;;;;2.65;1.00;;;17.70;48.90;;;;;;5052865;28;20238;-55
2021/09/06 12:51:09;;;;;;;1.35;1.05;;;17.70;48.90;;;;;;5052964;28;20247;-53
2021/09/06 12:53:40;;;;;;;1.77;1.00;;;17.70;49.00;;;;;;5052936;28;20301;-56
2021/09/06 12:56:10;;;;;;;1.40;1.00;;;17.70;48.90;;;;;;5053126;28;20604;-52
2021/09/06 12:58:41;;;;;;;1.60;1.02;;;17.70;49.00;;;;;;5053245;28;20231;-57
2021/09/06 13:01:11;;;;;;;2.03;1.17;;;17.70;49.00;;;;;;5052439;28;20303;-56
2021/09/06 13:03:43;;;;;;;1.77;1.02;;;17.70;49.00;;;;;;5052803;28;20258;-54
2021/09/06 13:06:14;;;;;;;1.83;1.00;;;17.60;48.90;;;;;;5052644;28;20242;-57
2021/09/06 13:08:44;;;;;;;1.40;0.82;;;17.60;48.90;;;;;;5052583;28;20231;-56
2021/09/06 13:11:14;;;;;;;1.90;0.98;;;17.60;49.00;;;;;;5052872;28;20242;-57